25 september 2022

Tijd Code Weer Temp. Zicht Plafond Wind METAR/SPECI
06:00
V
24 °C 10 km+ - 240° 240° 6 kt METAR DGAA 250600Z 24006KT 9999 FEW010 24/23 Q1011 NOSIG
05:00
M
25 °C 10 km+ 1.000 ft 250° 250° 7 kt METAR DGAA 250500Z 25007KT 9999 BKN010 25/23 Q1011 NOSIG
04:00
V
25 °C 10 km+ - 250° 250° 8 kt METAR DGAA 250400Z 25008KT 9999 SCT010 25/23 Q1011 NOSIG
03:00
V
25 °C 10 km+ - 240° 240° 8 kt METAR DGAA 250300Z 24008KT 9999 SCT010 25/23 Q1011 NOSIG
02:00
M
25 °C 10 km+ 1.000 ft 240° 240° 8 kt METAR DGAA 250200Z 24008KT 9999 BKN010 25/23 Q1011 NOSIG
01:00
M
25 °C 10 km+ 1.000 ft 250° 250° 7 kt METAR DGAA 250100Z 25007KT 210V270 9999 BKN010 25/24 Q1012 NOSIG
00:00
V
25 °C 10 km+ - 230° 230° 8 kt METAR DGAA 250000Z 23008KT 9999 SCT010 25/23 Q1012 NOSIG

24 september 2022

Tijd Code Weer Temp. Zicht Plafond Wind METAR/SPECI
23:00
V
26 °C 10 km+ - 230° 230° 9 kt METAR DGAA 242300Z 23009KT 9999 SCT010 26/23 Q1012 NOSIG
22:00
V
26 °C 10 km+ - 220° 220° 10 kt METAR DGAA 242200Z 22010KT 9999 SCT010 26/23 Q1012 NOSIG
21:00
V
26 °C 10 km+ - 220° 220° 10 kt METAR DGAA 242100Z 22010KT 9999 FEW010 26/23 Q1012 NOSIG
20:00
V
26 °C 10 km+ - 200° 200° 11 kt METAR DGAA 242000Z 20011KT 9999 SCT012 26/23 Q1011 NOSIG
18:00
V
26 °C 10 km+ - 190° 190° 13 kt METAR DGAA 241800Z 19013KT 9999 SCT012 26/23 Q1009 NOSIG
12:00
V
30 °C 10 km+ - 180° 180° 11 kt METAR DGAA 241200Z 18011KT 9999 SCT016 30/24 Q1012 NOSIG
11:00
V
29 °C 10 km+ - 230° 230° 5 kt METAR DGAA 241100Z 23005KT 170V310 9999 SCT016 29/23 Q1013 NOSIG
10:00
L
28 °C 0 m - 240° 240° 6 kt METAR DGAA 241000Z 24006KT 220V310 SCT014 28/23 Q1014 NOSIG
09:00
L
27 °C 0 m - 260° 260° 7 kt METAR DGAA 240900Z 26007KT 230V290 SCT014 27/23 Q1013 NOSIG
08:00
V
26 °C 10 km+ - 260° 260° 7 kt METAR DGAA 240800Z 26007KT 9999 FEW010 26/23 Q1013 NOSIG
07:00
V
25 °C 10 km+ - 260° 260° 8 kt METAR DGAA 240700Z 26008KT 9999 FEW010 25/23 Q1013 NOSIG
06:00
M
25 °C 10 km+ 1.000 ft 250° 250° 6 kt METAR DGAA 240600Z 25006KT 9999 BKN010 25/23 Q1012 NOSIG
05:00
V
25 °C 10 km+ - 260° 260° 6 kt METAR DGAA 240500Z 26006KT CAVOK 25/23 Q1012 NOSIG
04:00
V
25 °C 10 km+ - 240° 240° 8 kt METAR DGAA 240400Z 24008KT 9999 SCT010 25/23 Q1011 NOSIG
03:00
M
25 °C 10 km+ 1.000 ft 240° 240° 8 kt METAR DGAA 240300Z 24008KT 9999 BKN010 25/23 Q1011 NOSIG
02:00
M
25 °C 10 km+ 1.000 ft 240° 240° 10 kt METAR DGAA 240200Z 24010KT 9999 BKN010 25/23 Q1012 NOSIG
01:00
M
25 °C 10 km+ 1.000 ft 230° 230° 10 kt METAR DGAA 240100Z 23010KT 9999 BKN010 25/23 Q1012 NOSIG
00:00
M
25 °C 10 km+ 1.000 ft 230° 230° 8 kt METAR DGAA 240000Z 23008KT 9999 BKN010 25/23 Q1012 NOSIG

23 september 2022

Tijd Code Weer Temp. Zicht Plafond Wind METAR/SPECI
23:00
M
25 °C 10 km+ 1.000 ft 230° 230° 11 kt METAR DGAA 232300Z 23011KT 9999 BKN010 25/23 Q1012 NOSIG
22:00
M
25 °C 10 km+ 1.000 ft 210° 210° 11 kt METAR DGAA 232200Z 21011KT 9999 BKN010 25/24 Q1012 NOSIG
21:00
M
25 °C 10 km+ 1.000 ft 210° 210° 10 kt METAR DGAA 232100Z 21010KT 9999 BKN010 25/24 Q1012 NOSIG
20:00
M
25 °C 10 km+ 1.000 ft 200° 200° 11 kt METAR DGAA 232000Z 20011KT 9999 BKN010 25/24 Q1012 NOSIG
19:00
M
26 °C 10 km+ 1.000 ft 190° 190° 10 kt METAR DGAA 231900Z 19010KT 9999 BKN010 26/24 Q1012 NOSIG
18:00
M
26 °C 10 km+ 1.200 ft 190° 190° 11 kt METAR DGAA 231800Z 19011KT 9999 BKN012 FEW028CB 26/24 Q1011 NOSIG
17:00
V
26 °C 10 km+ - 190° 190° 13 kt METAR DGAA 231700Z 19013KT 9999 SCT013 FEW028CB 26/24 Q1010 NOSIG
16:00
V
27 °C 10 km+ - 180° 180° 14 kt METAR DGAA 231600Z 18014KT 9999 SCT014 FEW028CB 27/24 Q1010 NOSIG
15:00
V
27 °C 10 km+ - 180° 180° 14 kt METAR DGAA 231500Z 18014KT 9999 SCT014 FEW028CB 27/24 Q1010 NOSIG
14:00
V
28 °C 10 km+ - 190° 190° 12 kt METAR DGAA 231400Z 19012KT 9999 FEW016 FEW028CB 28/24 Q1010 NOSIG
13:00
V
28 °C 10 km+ - 180° 180° 10 kt METAR DGAA 231300Z 18010KT 150V210 9999 FEW016 FEW028CB 28/24 Q1012 NOSIG
12:00
V
28 °C 10 km+ - 190° 190° 11 kt METAR DGAA 231200Z 19011KT 150V210 9999 SCT015 28/24 Q1013 NOSIG
11:00
M
28 °C 10 km+ 1.600 ft 180° 180° 9 kt METAR DGAA 231100Z 18009KT 9999 BKN016 28/25 Q1013 NOSIG
10:00
V
29 °C 10 km+ - 220° 220° 8 kt METAR DGAA 231000Z 22008KT 180V260 9999 SCT015 29/23 Q1013 NOSIG
09:00
V
27 °C 10 km+ - 240° 240° 7 kt METAR DGAA 230900Z 24007KT 200V270 9999 SCT014 27/24 Q1013 NOSIG
08:00
M
26 °C 10 km+ 1.000 ft 240° 240° 10 kt METAR DGAA 230800Z 24010KT 9999 BKN010 26/23 Q1013 NOSIG
07:00
M
25 °C 10 km+ 1.000 ft 250° 250° 7 kt METAR DGAA 230700Z 25007KT 9999 BKN010 25/23 Q1013 NOSIG
Oudere gegevens

Met cookies volgen wij en derde partijen jouw internetgedrag binnen onze site. Als je verdergaat gaan we ervan uit dat je dit goedvindt. Meer info